createdAt,value
2024-03-16T00:01:08.618Z,1.17
2024-03-16T00:03:43.516Z,0.93
2024-03-16T00:06:13.893Z,0.80
2024-03-16T00:09:10.796Z,1.23
2024-03-16T00:12:22.955Z,0.82
2024-03-16T00:14:54.518Z,0.95
2024-03-16T00:17:41.018Z,0.95
2024-03-16T00:20:51.306Z,0.80
2024-03-16T00:23:23.575Z,0.70
2024-03-16T00:26:04.336Z,0.68
2024-03-16T00:28:45.440Z,1.00
2024-03-16T00:31:20.830Z,0.70
2024-03-16T00:33:49.890Z,0.82
2024-03-16T00:36:21.950Z,0.80
2024-03-16T00:38:56.488Z,0.70
2024-03-16T00:41:28.834Z,0.80
2024-03-16T00:43:57.880Z,0.75
2024-03-16T00:46:31.529Z,0.80
2024-03-16T00:49:07.036Z,0.70
2024-03-16T00:51:47.069Z,0.80
2024-03-16T00:54:20.383Z,0.73
2024-03-16T00:56:52.846Z,1.00
2024-03-16T00:59:24.249Z,0.75
2024-03-16T01:01:57.205Z,0.75
2024-03-16T01:04:29.461Z,0.75
2024-03-16T01:07:02.358Z,1.10
2024-03-16T01:09:34.175Z,1.00
2024-03-16T01:12:03.244Z,0.90
2024-03-16T01:14:32.136Z,1.00
2024-03-16T01:17:01.083Z,1.10
2024-03-16T01:19:40.136Z,0.90
2024-03-16T01:22:16.086Z,0.75
2024-03-16T01:24:56.134Z,0.82
2024-03-16T01:27:25.489Z,0.70
2024-03-16T01:29:54.284Z,0.90
2024-03-16T01:32:25.448Z,0.90
2024-03-16T01:34:57.153Z,0.60
2024-03-16T01:37:33.557Z,0.95
2024-03-16T01:40:02.630Z,0.93
2024-03-16T01:42:35.552Z,1.13
2024-03-16T01:45:10.018Z,1.00
2024-03-16T01:47:41.822Z,0.88
2024-03-16T01:50:18.471Z,0.95
2024-03-16T01:53:03.446Z,1.10
2024-03-16T01:55:42.878Z,1.00
2024-03-16T01:58:12.174Z,1.10
2024-03-16T02:00:44.203Z,1.00
2024-03-16T02:03:13.061Z,1.15
2024-03-16T02:05:43.698Z,0.90
2024-03-16T02:08:23.926Z,1.08
2024-03-16T02:11:02.781Z,1.20
2024-03-16T02:13:34.607Z,1.20
2024-03-16T02:16:04.271Z,1.15
2024-03-16T02:18:33.427Z,1.30
2024-03-16T02:21:05.510Z,1.00
2024-03-16T02:23:37.639Z,1.13
2024-03-16T02:26:06.941Z,1.08
2024-03-16T02:28:35.910Z,1.30
2024-03-16T02:31:14.412Z,1.10
2024-03-16T02:33:45.744Z,1.10
2024-03-16T02:36:15.297Z,1.30
2024-03-16T02:38:47.406Z,1.33
2024-03-16T02:41:16.817Z,1.55
2024-03-16T02:43:49.227Z,1.27
2024-03-16T02:46:19.214Z,1.60
2024-03-16T02:48:48.323Z,1.50
2024-03-16T02:51:17.206Z,1.42
2024-03-16T02:53:58.126Z,1.35
2024-03-16T02:56:27.284Z,1.20
2024-03-16T02:58:56.209Z,1.10
2024-03-16T03:01:25.449Z,1.27
2024-03-16T03:03:54.624Z,1.30
2024-03-16T03:06:23.661Z,1.20
2024-03-16T03:08:54.745Z,1.30
2024-03-16T03:11:23.912Z,1.30
2024-03-16T03:13:56.868Z,1.50
2024-03-16T03:16:25.840Z,1.40
2024-03-16T03:18:56.390Z,1.42
2024-03-16T03:21:28.124Z,1.10
2024-03-16T03:24:02.197Z,1.17
2024-03-16T03:26:31.737Z,1.58
2024-03-16T03:29:10.200Z,1.90
2024-03-16T03:31:42.464Z,1.63
2024-03-16T03:34:11.405Z,1.40
2024-03-16T03:36:46.245Z,1.45
2024-03-16T03:39:22.502Z,1.48
2024-03-16T03:41:54.580Z,1.65
2024-03-16T03:44:37.614Z,1.65
2024-03-16T03:47:06.659Z,1.40
2024-03-16T03:49:37.433Z,1.83
2024-03-16T03:52:06.845Z,1.70
2024-03-16T03:54:36.572Z,1.58
2024-03-16T03:57:05.942Z,1.90
2024-03-16T03:59:36.046Z,1.95
2024-03-16T04:02:11.129Z,1.50
2024-03-16T04:04:43.902Z,1.50
2024-03-16T04:07:13.525Z,1.63
2024-03-16T04:09:46.757Z,1.50
2024-03-16T04:12:15.818Z,1.90
2024-03-16T04:14:45.107Z,1.60
2024-03-16T04:17:14.366Z,1.60
2024-03-16T04:19:46.888Z,1.50
2024-03-16T04:22:19.488Z,1.25
2024-03-16T04:24:48.896Z,1.52
2024-03-16T04:27:18.431Z,1.30
2024-03-16T04:29:52.513Z,1.92
2024-03-16T04:32:23.527Z,1.48
2024-03-16T04:34:52.400Z,1.40
2024-03-16T04:37:21.810Z,1.40
2024-03-16T04:39:50.724Z,1.60
2024-03-16T04:42:24.237Z,1.60
2024-03-16T04:44:56.875Z,1.48
2024-03-16T04:47:28.927Z,1.40
2024-03-16T04:49:57.857Z,2.22
2024-03-16T04:52:26.676Z,1.50
2024-03-16T04:54:59.542Z,1.88
2024-03-16T04:57:29.406Z,1.58
2024-03-16T04:59:59.521Z,1.48
2024-03-16T05:02:32.666Z,1.52
2024-03-16T05:05:02.176Z,1.55
2024-03-16T05:07:39.422Z,1.48
2024-03-16T05:10:10.738Z,1.65
2024-03-16T05:12:40.221Z,1.48
2024-03-16T05:15:10.587Z,2.40
2024-03-16T05:17:41.206Z,1.33
2024-03-16T05:20:13.795Z,1.67
2024-03-16T05:22:42.841Z,2.08
2024-03-16T05:25:12.493Z,1.55
2024-03-16T05:27:44.868Z,1.70
2024-03-16T05:30:15.917Z,1.42
2024-03-16T05:32:48.518Z,1.80
2024-03-16T05:35:18.444Z,2.03
2024-03-16T05:37:47.604Z,1.70
2024-03-16T05:40:19.309Z,1.73
2024-03-16T05:42:48.651Z,2.00
2024-03-16T05:45:20.770Z,1.73
2024-03-16T05:47:52.341Z,1.67
2024-03-16T05:50:21.304Z,1.90
2024-03-16T05:52:53.540Z,1.70
2024-03-16T05:55:25.182Z,1.70
2024-03-16T05:57:54.136Z,2.22
2024-03-16T06:00:25.989Z,1.85
2024-03-16T06:02:54.953Z,2.13
2024-03-16T06:05:26.464Z,1.95
2024-03-16T06:07:55.401Z,1.92
2024-03-16T06:10:24.277Z,2.03
2024-03-16T06:12:55.645Z,2.50
2024-03-16T06:15:24.555Z,2.00
2024-03-16T06:18:01.712Z,1.92
2024-03-16T06:20:31.284Z,2.50
2024-03-16T06:23:03.556Z,1.80
2024-03-16T06:25:37.948Z,2.00
2024-03-16T06:28:08.408Z,2.15
2024-03-16T06:30:37.768Z,2.47
2024-03-16T06:33:13.397Z,1.83
2024-03-16T06:35:43.832Z,2.10
2024-03-16T06:38:12.646Z,2.30
2024-03-16T06:40:41.448Z,1.65
2024-03-16T06:43:12.918Z,2.08
2024-03-16T06:45:44.468Z,1.65
2024-03-16T06:48:13.450Z,1.85
2024-03-16T06:50:42.378Z,1.77
2024-03-16T06:53:11.705Z,2.05
2024-03-16T06:55:40.822Z,2.10
2024-03-16T06:58:13.487Z,2.00
2024-03-16T07:00:44.931Z,1.80
2024-03-16T07:03:19.643Z,2.08
2024-03-16T07:05:48.572Z,1.80
2024-03-16T07:08:19.076Z,1.90
2024-03-16T07:10:51.163Z,2.40
2024-03-16T07:13:23.793Z,1.90
2024-03-16T07:15:55.812Z,2.10
2024-03-16T07:18:24.761Z,1.63
2024-03-16T07:20:54.757Z,1.67
2024-03-16T07:23:27.570Z,2.00
2024-03-16T07:26:01.381Z,2.22
2024-03-16T07:28:34.136Z,1.92
2024-03-16T07:31:04.845Z,2.15
2024-03-16T07:33:34.436Z,2.10
2024-03-16T07:36:03.294Z,2.38
2024-03-16T07:38:32.571Z,1.77
2024-03-16T07:41:01.420Z,1.75
2024-03-16T07:43:31.941Z,2.22
2024-03-16T07:46:03.842Z,1.85
2024-03-16T07:48:37.795Z,1.88
2024-03-16T07:51:06.808Z,2.10
2024-03-16T07:53:38.327Z,2.10
2024-03-16T07:56:11.069Z,2.00
2024-03-16T07:58:40.032Z,2.33
2024-03-16T08:01:12.060Z,1.98
2024-03-16T08:03:41.539Z,2.13
2024-03-16T08:06:13.588Z,1.85
2024-03-16T08:08:44.899Z,2.03
2024-03-16T08:11:14.490Z,2.22
2024-03-16T08:13:47.329Z,1.90
2024-03-16T08:16:17.191Z,2.20
2024-03-16T08:18:47.892Z,2.70
2024-03-16T08:21:18.524Z,1.98
2024-03-16T08:23:47.276Z,1.98
2024-03-16T08:26:19.080Z,1.77
2024-03-16T08:28:50.956Z,2.35
2024-03-16T08:31:19.931Z,2.30
2024-03-16T08:33:48.785Z,2.35
2024-03-16T08:36:24.440Z,2.25
2024-03-16T08:38:56.994Z,2.38
2024-03-16T08:41:25.941Z,2.28
2024-03-16T08:43:56.373Z,2.10
2024-03-16T08:46:27.927Z,1.95
2024-03-16T08:49:00.515Z,2.15
2024-03-16T08:51:29.597Z,2.25
2024-03-16T08:53:58.435Z,2.40
2024-03-16T08:56:30.067Z,2.60
2024-03-16T08:58:59.459Z,2.08
2024-03-16T09:01:28.621Z,2.55
2024-03-16T09:04:01.651Z,2.55
2024-03-16T09:06:32.365Z,2.60
2024-03-16T09:09:02.798Z,2.40
2024-03-16T09:11:37.611Z,2.20
2024-03-16T09:14:09.573Z,2.38
2024-03-16T09:16:42.475Z,2.15
2024-03-16T09:19:11.783Z,2.45
2024-03-16T09:21:40.876Z,3.13
2024-03-16T09:24:13.800Z,2.47
2024-03-16T09:26:42.691Z,2.22
2024-03-16T09:29:14.651Z,2.75
2024-03-16T09:31:43.811Z,2.50
2024-03-16T09:34:18.301Z,2.55
2024-03-16T09:36:48.897Z,2.42
2024-03-16T09:39:28.420Z,2.25
2024-03-16T09:42:00.129Z,2.42
